sensor_id;sensor_type;location;lat;lon;timestamp;P1;durP1;ratioP1;P2;durP2;ratioP2
8480;SDS011;4277;51.354;6.740;2024-03-23T00:53:57;11.57;;;3.83;;
8480;SDS011;4277;51.354;6.740;2024-03-23T00:56:24;10.93;;;3.70;;
8480;SDS011;4277;51.354;6.740;2024-03-23T00:58:49;9.53;;;3.50;;
8480;SDS011;4277;51.354;6.740;2024-03-23T01:01:15;9.50;;;3.10;;
8480;SDS011;4277;51.354;6.740;2024-03-23T01:03:41;10.53;;;3.53;;
8480;SDS011;4277;51.354;6.740;2024-03-23T01:06:07;8.73;;;3.37;;
8480;SDS011;4277;51.354;6.740;2024-03-23T01:08:33;11.03;;;3.40;;
8480;SDS011;4277;51.354;6.740;2024-03-23T01:11:00;11.60;;;2.87;;
8480;SDS011;4277;51.354;6.740;2024-03-23T01:13:27;12.70;;;2.90;;
8480;SDS011;4277;51.354;6.740;2024-03-23T01:15:53;11.17;;;2.63;;
8480;SDS011;4277;51.354;6.740;2024-03-23T01:18:19;11.07;;;2.77;;
8480;SDS011;4277;51.354;6.740;2024-03-23T01:20:45;7.13;;;2.57;;
8480;SDS011;4277;51.354;6.740;2024-03-23T01:23:12;8.10;;;2.37;;
8480;SDS011;4277;51.354;6.740;2024-03-23T01:25:38;6.03;;;2.00;;
8480;SDS011;4277;51.354;6.740;2024-03-23T01:28:04;11.93;;;2.60;;
8480;SDS011;4277;51.354;6.740;2024-03-23T01:30:31;6.57;;;2.40;;
8480;SDS011;4277;51.354;6.740;2024-03-23T01:32:57;7.57;;;2.27;;
8480;SDS011;4277;51.354;6.740;2024-03-23T01:35:23;10.60;;;2.40;;
8480;SDS011;4277;51.354;6.740;2024-03-23T01:37:49;7.00;;;2.50;;
8480;SDS011;4277;51.354;6.740;2024-03-23T01:40:17;6.60;;;2.37;;
8480;SDS011;4277;51.354;6.740;2024-03-23T01:42:43;4.73;;;2.07;;
8480;SDS011;4277;51.354;6.740;2024-03-23T01:45:20;6.97;;;2.20;;
8480;SDS011;4277;51.354;6.740;2024-03-23T01:47:46;7.27;;;2.33;;
8480;SDS011;4277;51.354;6.740;2024-03-23T01:50:13;10.03;;;2.20;;
8480;SDS011;4277;51.354;6.740;2024-03-23T01:52:39;7.10;;;2.30;;
8480;SDS011;4277;51.354;6.740;2024-03-23T01:55:05;10.67;;;2.83;;
8480;SDS011;4277;51.354;6.740;2024-03-23T01:57:31;7.00;;;2.90;;
8480;SDS011;4277;51.354;6.740;2024-03-23T01:59:57;6.17;;;2.33;;
8480;SDS011;4277;51.354;6.740;2024-03-23T02:02:22;10.27;;;2.67;;
8480;SDS011;4277;51.354;6.740;2024-03-23T02:04:48;6.33;;;2.33;;
8480;SDS011;4277;51.354;6.740;2024-03-23T02:07:14;8.83;;;2.77;;
8480;SDS011;4277;51.354;6.740;2024-03-23T02:09:40;9.93;;;2.60;;
8480;SDS011;4277;51.354;6.740;2024-03-23T02:12:06;8.17;;;2.30;;
8480;SDS011;4277;51.354;6.740;2024-03-23T02:14:32;11.37;;;2.63;;
8480;SDS011;4277;51.354;6.740;2024-03-23T02:16:58;9.50;;;2.57;;
8480;SDS011;4277;51.354;6.740;2024-03-23T02:19:24;8.87;;;2.53;;
8480;SDS011;4277;51.354;6.740;2024-03-23T02:21:50;7.57;;;2.40;;
8480;SDS011;4277;51.354;6.740;2024-03-23T02:24:16;5.40;;;2.13;;
8480;SDS011;4277;51.354;6.740;2024-03-23T02:26:42;8.83;;;2.30;;
8480;SDS011;4277;51.354;6.740;2024-03-23T02:29:08;6.63;;;2.00;;
8480;SDS011;4277;51.354;6.740;2024-03-23T02:31:34;5.33;;;1.87;;
8480;SDS011;4277;51.354;6.740;2024-03-23T02:34:00;9.13;;;2.30;;
8480;SDS011;4277;51.354;6.740;2024-03-23T02:36:26;8.53;;;1.90;;
8480;SDS011;4277;51.354;6.740;2024-03-23T02:38:52;5.80;;;1.70;;
8480;SDS011;4277;51.354;6.740;2024-03-23T02:41:18;8.63;;;1.97;;
8480;SDS011;4277;51.354;6.740;2024-03-23T02:43:48;7.47;;;2.43;;
8480;SDS011;4277;51.354;6.740;2024-03-23T02:46:14;6.00;;;2.07;;
8480;SDS011;4277;51.354;6.740;2024-03-23T02:48:40;6.93;;;2.13;;
8480;SDS011;4277;51.354;6.740;2024-03-23T02:51:06;6.67;;;2.20;;
8480;SDS011;4277;51.354;6.740;2024-03-23T02:53:32;7.30;;;1.87;;
8480;SDS011;4277;51.354;6.740;2024-03-23T02:55:58;8.23;;;2.20;;
8480;SDS011;4277;51.354;6.740;2024-03-23T02:58:24;8.40;;;2.20;;
8480;SDS011;4277;51.354;6.740;2024-03-23T03:00:50;8.63;;;2.90;;
8480;SDS011;4277;51.354;6.740;2024-03-23T03:03:16;8.50;;;2.73;;
8480;SDS011;4277;51.354;6.740;2024-03-23T03:05:42;9.50;;;2.50;;
8480;SDS011;4277;51.354;6.740;2024-03-23T03:08:08;7.20;;;2.30;;
8480;SDS011;4277;51.354;6.740;2024-03-23T03:10:34;10.93;;;2.37;;
8480;SDS011;4277;51.354;6.740;2024-03-23T03:13:01;4.87;;;2.07;;
8480;SDS011;4277;51.354;6.740;2024-03-23T03:15:27;10.03;;;2.77;;
8480;SDS011;4277;51.354;6.740;2024-03-23T03:17:53;7.30;;;2.30;;
8480;SDS011;4277;51.354;6.740;2024-03-23T03:20:19;8.50;;;2.90;;
8480;SDS011;4277;51.354;6.740;2024-03-23T03:22:47;6.20;;;2.40;;
8480;SDS011;4277;51.354;6.740;2024-03-23T03:25:13;5.37;;;2.40;;
8480;SDS011;4277;51.354;6.740;2024-03-23T03:27:39;3.83;;;2.10;;
8480;SDS011;4277;51.354;6.740;2024-03-23T03:30:05;7.83;;;3.10;;
8480;SDS011;4277;51.354;6.740;2024-03-23T03:32:33;8.33;;;2.43;;
8480;SDS011;4277;51.354;6.740;2024-03-23T03:34:59;5.50;;;2.33;;
8480;SDS011;4277;51.354;6.740;2024-03-23T03:37:25;9.70;;;3.17;;
8480;SDS011;4277;51.354;6.740;2024-03-23T03:39:51;9.20;;;2.60;;
8480;SDS011;4277;51.354;6.740;2024-03-23T03:42:17;10.23;;;2.70;;
8480;SDS011;4277;51.354;6.740;2024-03-23T03:44:43;11.00;;;2.50;;
8480;SDS011;4277;51.354;6.740;2024-03-23T03:47:09;8.63;;;2.57;;
8480;SDS011;4277;51.354;6.740;2024-03-23T03:49:35;8.20;;;2.90;;
8480;SDS011;4277;51.354;6.740;2024-03-23T03:52:01;6.77;;;2.60;;
8480;SDS011;4277;51.354;6.740;2024-03-23T03:54:27;9.80;;;2.93;;
8480;SDS011;4277;51.354;6.740;2024-03-23T03:56:53;11.00;;;3.03;;
8480;SDS011;4277;51.354;6.740;2024-03-23T03:59:19;10.10;;;2.90;;
8480;SDS011;4277;51.354;6.740;2024-03-23T04:01:45;9.33;;;3.13;;
8480;SDS011;4277;51.354;6.740;2024-03-23T04:04:11;10.70;;;3.23;;
8480;SDS011;4277;51.354;6.740;2024-03-23T04:06:38;11.10;;;3.83;;
8480;SDS011;4277;51.354;6.740;2024-03-23T04:09:04;9.80;;;3.47;;
8480;SDS011;4277;51.354;6.740;2024-03-23T04:11:31;11.23;;;3.70;;
8480;SDS011;4277;51.354;6.740;2024-03-23T04:13:57;10.27;;;3.80;;
8480;SDS011;4277;51.354;6.740;2024-03-23T04:16:27;12.30;;;3.60;;
8480;SDS011;4277;51.354;6.740;2024-03-23T04:18:53;11.83;;;3.57;;
8480;SDS011;4277;51.354;6.740;2024-03-23T04:21:19;7.83;;;2.83;;
8480;SDS011;4277;51.354;6.740;2024-03-23T04:23:45;10.33;;;3.10;;
8480;SDS011;4277;51.354;6.740;2024-03-23T04:26:11;9.90;;;2.97;;
8480;SDS011;4277;51.354;6.740;2024-03-23T04:28:37;6.77;;;2.63;;
8480;SDS011;4277;51.354;6.740;2024-03-23T04:31:03;8.53;;;2.83;;
8480;SDS011;4277;51.354;6.740;2024-03-23T04:33:30;5.83;;;2.67;;
8480;SDS011;4277;51.354;6.740;2024-03-23T04:35:56;7.03;;;2.87;;
8480;SDS011;4277;51.354;6.740;2024-03-23T04:38:22;7.33;;;2.60;;
8480;SDS011;4277;51.354;6.740;2024-03-23T04:40:58;9.50;;;3.40;;
8480;SDS011;4277;51.354;6.740;2024-03-23T04:43:25;12.27;;;3.27;;
8480;SDS011;4277;51.354;6.740;2024-03-23T04:45:51;10.87;;;3.50;;
8480;SDS011;4277;51.354;6.740;2024-03-23T04:48:19;12.30;;;3.83;;
8480;SDS011;4277;51.354;6.740;2024-03-23T04:50:45;12.67;;;3.50;;
8480;SDS011;4277;51.354;6.740;2024-03-23T04:53:11;9.43;;;3.40;;
8480;SDS011;4277;51.354;6.740;2024-03-23T04:55:36;7.13;;;2.93;;
8480;SDS011;4277;51.354;6.740;2024-03-23T04:58:03;10.10;;;3.60;;
8480;SDS011;4277;51.354;6.740;2024-03-23T05:00:29;10.83;;;3.40;;
8480;SDS011;4277;51.354;6.740;2024-03-23T05:02:55;11.47;;;3.90;;
8480;SDS011;4277;51.354;6.740;2024-03-23T05:05:20;14.43;;;3.63;;
8480;SDS011;4277;51.354;6.740;2024-03-23T05:07:46;13.20;;;4.60;;
8480;SDS011;4277;51.354;6.740;2024-03-23T05:10:12;15.93;;;4.23;;
8480;SDS011;4277;51.354;6.740;2024-03-23T05:12:38;11.67;;;4.20;;
8480;SDS011;4277;51.354;6.740;2024-03-23T05:15:05;9.50;;;3.67;;
8480;SDS011;4277;51.354;6.740;2024-03-23T05:17:32;16.03;;;4.77;;
8480;SDS011;4277;51.354;6.740;2024-03-23T05:19:59;12.47;;;4.53;;
8480;SDS011;4277;51.354;6.740;2024-03-23T05:22:25;14.23;;;4.87;;
8480;SDS011;4277;51.354;6.740;2024-03-23T05:24:52;13.23;;;4.60;;
8480;SDS011;4277;51.354;6.740;2024-03-23T05:27:18;14.80;;;5.20;;
8480;SDS011;4277;51.354;6.740;2024-03-23T05:29:44;11.03;;;4.30;;
8480;SDS011;4277;51.354;6.740;2024-03-23T05:32:10;13.50;;;5.30;;
8480;SDS011;4277;51.354;6.740;2024-03-23T05:34:36;11.13;;;4.60;;
8480;SDS011;4277;51.354;6.740;2024-03-23T05:37:02;15.63;;;5.03;;
8480;SDS011;4277;51.354;6.740;2024-03-23T05:39:28;13.63;;;5.43;;
8480;SDS011;4277;51.354;6.740;2024-03-23T05:41:53;15.43;;;5.50;;
8480;SDS011;4277;51.354;6.740;2024-03-23T05:44:19;15.17;;;5.60;;
8480;SDS011;4277;51.354;6.740;2024-03-23T05:46:45;14.57;;;5.17;;
8480;SDS011;4277;51.354;6.740;2024-03-23T05:49:13;11.97;;;5.53;;
8480;SDS011;4277;51.354;6.740;2024-03-23T05:51:39;15.50;;;5.77;;
8480;SDS011;4277;51.354;6.740;2024-03-23T05:54:05;15.73;;;6.37;;
8480;SDS011;4277;51.354;6.740;2024-03-23T05:56:31;20.60;;;7.00;;
8480;SDS011;4277;51.354;6.740;2024-03-23T05:58:57;15.63;;;7.50;;
8480;SDS011;4277;51.354;6.740;2024-03-23T06:01:23;14.87;;;7.30;;
8480;SDS011;4277;51.354;6.740;2024-03-23T06:03:49;14.30;;;7.83;;
8480;SDS011;4277;51.354;6.740;2024-03-23T06:06:16;15.33;;;8.43;;
8480;SDS011;4277;51.354;6.740;2024-03-23T06:08:42;14.33;;;8.03;;
8480;SDS011;4277;51.354;6.740;2024-03-23T06:11:07;18.70;;;9.00;;
8480;SDS011;4277;51.354;6.740;2024-03-23T06:13:33;20.73;;;9.20;;
8480;SDS011;4277;51.354;6.740;2024-03-23T06:16:00;20.80;;;9.43;;
8480;SDS011;4277;51.354;6.740;2024-03-23T06:18:26;16.93;;;9.77;;
8480;SDS011;4277;51.354;6.740;2024-03-23T06:20:52;15.50;;;8.60;;
8480;SDS011;4277;51.354;6.740;2024-03-23T06:23:18;15.50;;;8.97;;
8480;SDS011;4277;51.354;6.740;2024-03-23T06:25:45;19.77;;;9.73;;
8480;SDS011;4277;51.354;6.740;2024-03-23T06:28:11;15.87;;;8.93;;
8480;SDS011;4277;51.354;6.740;2024-03-23T06:30:37;19.03;;;8.73;;
8480;SDS011;4277;51.354;6.740;2024-03-23T06:33:03;20.33;;;9.13;;
8480;SDS011;4277;51.354;6.740;2024-03-23T06:35:30;16.30;;;8.80;;
8480;SDS011;4277;51.354;6.740;2024-03-23T06:37:56;21.67;;;9.27;;
8480;SDS011;4277;51.354;6.740;2024-03-23T06:40:23;22.07;;;9.60;;
8480;SDS011;4277;51.354;6.740;2024-03-23T06:42:49;21.30;;;8.70;;
8480;SDS011;4277;51.354;6.740;2024-03-23T06:45:15;13.70;;;8.50;;
8480;SDS011;4277;51.354;6.740;2024-03-23T06:47:41;18.10;;;8.43;;
8480;SDS011;4277;51.354;6.740;2024-03-23T06:50:07;18.07;;;8.47;;
8480;SDS011;4277;51.354;6.740;2024-03-23T06:52:35;16.03;;;8.17;;
8480;SDS011;4277;51.354;6.740;2024-03-23T06:55:01;16.67;;;8.07;;
8480;SDS011;4277;51.354;6.740;2024-03-23T06:57:29;19.20;;;8.03;;
8480;SDS011;4277;51.354;6.740;2024-03-23T06:59:55;15.77;;;8.07;;
8480;SDS011;4277;51.354;6.740;2024-03-23T07:02:21;18.87;;;7.90;;
8480;SDS011;4277;51.354;6.740;2024-03-23T07:04:47;16.93;;;8.00;;
8480;SDS011;4277;51.354;6.740;2024-03-23T07:07:13;23.00;;;8.03;;
8480;SDS011;4277;51.354;6.740;2024-03-23T07:09:39;15.23;;;7.53;;
8480;SDS011;4277;51.354;6.740;2024-03-23T07:12:05;19.33;;;8.40;;
8480;SDS011;4277;51.354;6.740;2024-03-23T07:14:31;20.47;;;8.10;;
8480;SDS011;4277;51.354;6.740;2024-03-23T07:16:57;18.30;;;8.07;;
8480;SDS011;4277;51.354;6.740;2024-03-23T07:19:23;14.77;;;7.17;;
8480;SDS011;4277;51.354;6.740;2024-03-23T07:21:49;17.47;;;7.47;;
8480;SDS011;4277;51.354;6.740;2024-03-23T07:24:15;14.37;;;7.63;;
8480;SDS011;4277;51.354;6.740;2024-03-23T07:26:41;19.67;;;7.57;;
8480;SDS011;4277;51.354;6.740;2024-03-23T07:29:08;16.37;;;6.80;;
8480;SDS011;4277;51.354;6.740;2024-03-23T07:31:34;19.23;;;7.33;;
8480;SDS011;4277;51.354;6.740;2024-03-23T07:34:00;16.47;;;7.00;;
8480;SDS011;4277;51.354;6.740;2024-03-23T07:36:26;15.30;;;6.60;;
8480;SDS011;4277;51.354;6.740;2024-03-23T07:38:52;18.50;;;6.90;;
8480;SDS011;4277;51.354;6.740;2024-03-23T07:41:18;14.30;;;6.33;;
8480;SDS011;4277;51.354;6.740;2024-03-23T07:43:45;16.50;;;6.70;;
8480;SDS011;4277;51.354;6.740;2024-03-23T07:46:11;16.37;;;6.07;;
8480;SDS011;4277;51.354;6.740;2024-03-23T07:48:37;17.97;;;6.13;;
8480;SDS011;4277;51.354;6.740;2024-03-23T07:51:08;15.87;;;5.43;;
8480;SDS011;4277;51.354;6.740;2024-03-23T07:53:35;17.70;;;6.30;;
8480;SDS011;4277;51.354;6.740;2024-03-23T07:56:08;14.93;;;5.67;;
8480;SDS011;4277;51.354;6.740;2024-03-23T07:58:40;14.17;;;5.93;;
8480;SDS011;4277;51.354;6.740;2024-03-23T08:03:33;12.60;;;5.37;;
8480;SDS011;4277;51.354;6.740;2024-03-23T08:06:06;13.70;;;5.33;;
8480;SDS011;4277;51.354;6.740;2024-03-23T08:08:32;16.57;;;6.10;;
8480;SDS011;4277;51.354;6.740;2024-03-23T08:10:58;15.37;;;5.60;;
8480;SDS011;4277;51.354;6.740;2024-03-23T08:13:24;9.20;;;5.10;;
8480;SDS011;4277;51.354;6.740;2024-03-23T08:15:50;16.43;;;5.90;;
8480;SDS011;4277;51.354;6.740;2024-03-23T08:18:16;14.93;;;5.50;;
8480;SDS011;4277;51.354;6.740;2024-03-23T08:20:42;11.47;;;4.33;;
8480;SDS011;4277;51.354;6.740;2024-03-23T08:23:08;12.13;;;4.40;;
8480;SDS011;4277;51.354;6.740;2024-03-23T08:25:34;11.73;;;4.50;;
8480;SDS011;4277;51.354;6.740;2024-03-23T08:28:00;11.93;;;4.30;;
8480;SDS011;4277;51.354;6.740;2024-03-23T08:30:27;10.97;;;3.20;;
8480;SDS011;4277;51.354;6.740;2024-03-23T08:32:54;3.67;;;1.70;;
8480;SDS011;4277;51.354;6.740;2024-03-23T08:35:20;5.80;;;2.07;;
8480;SDS011;4277;51.354;6.740;2024-03-23T08:37:46;4.67;;;1.77;;
8480;SDS011;4277;51.354;6.740;2024-03-23T08:40:12;8.90;;;1.23;;
8480;SDS011;4277;51.354;6.740;2024-03-23T08:42:38;2.53;;;0.80;;
8480;SDS011;4277;51.354;6.740;2024-03-23T08:45:04;2.83;;;1.43;;
8480;SDS011;4277;51.354;6.740;2024-03-23T08:47:33;2.33;;;1.07;;
8480;SDS011;4277;51.354;6.740;2024-03-23T08:50:00;3.43;;;1.37;;
8480;SDS011;4277;51.354;6.740;2024-03-23T08:52:26;2.83;;;1.70;;
8480;SDS011;4277;51.354;6.740;2024-03-23T08:54:53;3.83;;;2.27;;
8480;SDS011;4277;51.354;6.740;2024-03-23T08:57:20;4.30;;;2.37;;
8480;SDS011;4277;51.354;6.740;2024-03-23T08:59:46;4.73;;;2.50;;
8480;SDS011;4277;51.354;6.740;2024-03-23T09:02:12;4.60;;;2.80;;
8480;SDS011;4277;51.354;6.740;2024-03-23T09:04:38;7.37;;;2.87;;
8480;SDS011;4277;51.354;6.740;2024-03-23T09:07:04;5.37;;;2.77;;
8480;SDS011;4277;51.354;6.740;2024-03-23T09:09:30;5.30;;;3.10;;
8480;SDS011;4277;51.354;6.740;2024-03-23T09:11:56;5.90;;;4.07;;
8480;SDS011;4277;51.354;6.740;2024-03-23T09:14:22;11.00;;;4.97;;
8480;SDS011;4277;51.354;6.740;2024-03-23T09:16:51;10.23;;;4.90;;
8480;SDS011;4277;51.354;6.740;2024-03-23T09:19:17;10.30;;;5.33;;
8480;SDS011;4277;51.354;6.740;2024-03-23T09:21:43;10.57;;;5.23;;
8480;SDS011;4277;51.354;6.740;2024-03-23T09:24:09;11.20;;;6.20;;
8480;SDS011;4277;51.354;6.740;2024-03-23T09:26:35;12.20;;;5.70;;
8480;SDS011;4277;51.354;6.740;2024-03-23T09:29:01;14.40;;;5.73;;
8480;SDS011;4277;51.354;6.740;2024-03-23T09:31:27;8.93;;;4.87;;
8480;SDS011;4277;51.354;6.740;2024-03-23T09:33:53;11.07;;;4.80;;
8480;SDS011;4277;51.354;6.740;2024-03-23T09:36:19;10.23;;;4.77;;
8480;SDS011;4277;51.354;6.740;2024-03-23T09:38:45;12.37;;;4.43;;
8480;SDS011;4277;51.354;6.740;2024-03-23T09:41:11;13.27;;;4.27;;
8480;SDS011;4277;51.354;6.740;2024-03-23T09:43:37;15.83;;;4.70;;
8480;SDS011;4277;51.354;6.740;2024-03-23T09:46:03;12.23;;;3.93;;
8480;SDS011;4277;51.354;6.740;2024-03-23T09:48:30;16.50;;;4.83;;
8480;SDS011;4277;51.354;6.740;2024-03-23T09:50:56;9.77;;;3.53;;
8480;SDS011;4277;51.354;6.740;2024-03-23T09:53:22;9.20;;;3.43;;
8480;SDS011;4277;51.354;6.740;2024-03-23T09:55:48;11.77;;;3.03;;
8480;SDS011;4277;51.354;6.740;2024-03-23T09:58:17;6.87;;;2.67;;
8480;SDS011;4277;51.354;6.740;2024-03-23T10:00:44;9.00;;;2.83;;
8480;SDS011;4277;51.354;6.740;2024-03-23T10:03:10;8.27;;;2.80;;
8480;SDS011;4277;51.354;6.740;2024-03-23T10:05:36;9.67;;;3.03;;
8480;SDS011;4277;51.354;6.740;2024-03-23T10:08:17;7.93;;;3.17;;
8480;SDS011;4277;51.354;6.740;2024-03-23T10:10:44;6.10;;;2.80;;
8480;SDS011;4277;51.354;6.740;2024-03-23T10:13:10;9.07;;;2.70;;
8480;SDS011;4277;51.354;6.740;2024-03-23T10:15:38;10.13;;;3.13;;
8480;SDS011;4277;51.354;6.740;2024-03-23T10:18:20;7.50;;;2.57;;
8480;SDS011;4277;51.354;6.740;2024-03-23T10:21:06;7.70;;;2.17;;
8480;SDS011;4277;51.354;6.740;2024-03-23T10:23:33;6.50;;;2.20;;
8480;SDS011;4277;51.354;6.740;2024-03-23T10:28:43;11.83;;;2.80;;
8480;SDS011;4277;51.354;6.740;2024-03-23T10:31:16;8.10;;;2.50;;
8480;SDS011;4277;51.354;6.740;2024-03-23T10:33:46;8.17;;;2.13;;
8480;SDS011;4277;51.354;6.740;2024-03-23T10:36:12;5.23;;;1.60;;
8480;SDS011;4277;51.354;6.740;2024-03-23T10:38:39;3.17;;;1.57;;
8480;SDS011;4277;51.354;6.740;2024-03-23T10:41:07;4.47;;;1.43;;
8480;SDS011;4277;51.354;6.740;2024-03-23T10:43:33;4.20;;;1.63;;
8480;SDS011;4277;51.354;6.740;2024-03-23T10:46:00;4.53;;;1.67;;
8480;SDS011;4277;51.354;6.740;2024-03-23T10:48:26;4.43;;;1.40;;
8480;SDS011;4277;51.354;6.740;2024-03-23T10:50:52;4.00;;;1.30;;
8480;SDS011;4277;51.354;6.740;2024-03-23T10:53:18;1.40;;;0.70;;
8480;SDS011;4277;51.354;6.740;2024-03-23T10:55:45;1.83;;;0.97;;
8480;SDS011;4277;51.354;6.740;2024-03-23T10:58:11;2.47;;;1.10;;
8480;SDS011;4277;51.354;6.740;2024-03-23T11:00:37;2.07;;;0.80;;
8480;SDS011;4277;51.354;6.740;2024-03-23T11:03:46;1.57;;;0.70;;
8480;SDS011;4277;51.354;6.740;2024-03-23T11:05:53;1.50;;;0.70;;
8480;SDS011;4277;51.354;6.740;2024-03-23T11:08:52;0.57;;;0.40;;
8480;SDS011;4277;51.354;6.740;2024-03-23T11:11:11;2.80;;;1.00;;
8480;SDS011;4277;51.354;6.740;2024-03-23T11:13:38;3.20;;;0.97;;
8480;SDS011;4277;51.354;6.740;2024-03-23T11:16:22;2.57;;;1.00;;
8480;SDS011;4277;51.354;6.740;2024-03-23T11:18:49;3.33;;;1.03;;
8480;SDS011;4277;51.354;6.740;2024-03-23T11:24:12;7.43;;;1.67;;
8480;SDS011;4277;51.354;6.740;2024-03-23T11:26:38;4.17;;;1.50;;
8480;SDS011;4277;51.354;6.740;2024-03-23T11:29:11;5.07;;;1.40;;
8480;SDS011;4277;51.354;6.740;2024-03-23T11:31:37;2.40;;;1.40;;
8480;SDS011;4277;51.354;6.740;2024-03-23T11:34:04;4.83;;;1.90;;
8480;SDS011;4277;51.354;6.740;2024-03-23T11:36:30;5.90;;;1.60;;
8480;SDS011;4277;51.354;6.740;2024-03-23T11:38:56;4.30;;;1.87;;
8480;SDS011;4277;51.354;6.740;2024-03-23T11:41:22;3.10;;;1.70;;
8480;SDS011;4277;51.354;6.740;2024-03-23T11:43:48;6.23;;;2.00;;
8480;SDS011;4277;51.354;6.740;2024-03-23T11:46:21;6.50;;;2.30;;
8480;SDS011;4277;51.354;6.740;2024-03-23T11:48:50;2.23;;;1.07;;
8480;SDS011;4277;51.354;6.740;2024-03-23T11:51:16;1.17;;;0.50;;
8480;SDS011;4277;51.354;6.740;2024-03-23T11:53:43;1.50;;;0.50;;
8480;SDS011;4277;51.354;6.740;2024-03-23T11:56:09;3.90;;;1.00;;
8480;SDS011;4277;51.354;6.740;2024-03-23T11:58:35;3.73;;;1.43;;
8480;SDS011;4277;51.354;6.740;2024-03-23T12:01:01;2.60;;;1.23;;
8480;SDS011;4277;51.354;6.740;2024-03-23T12:03:28;4.20;;;1.60;;
8480;SDS011;4277;51.354;6.740;2024-03-23T12:06:03;4.17;;;1.70;;
8480;SDS011;4277;51.354;6.740;2024-03-23T12:08:34;3.60;;;1.70;;
8480;SDS011;4277;51.354;6.740;2024-03-23T12:11:10;4.63;;;1.93;;
8480;SDS011;4277;51.354;6.740;2024-03-23T12:13:37;2.80;;;1.60;;
8480;SDS011;4277;51.354;6.740;2024-03-23T12:16:10;4.57;;;1.70;;
8480;SDS011;4277;51.354;6.740;2024-03-23T12:18:39;5.73;;;2.00;;
8480;SDS011;4277;51.354;6.740;2024-03-23T12:21:06;2.20;;;1.43;;
8480;SDS011;4277;51.354;6.740;2024-03-23T12:23:32;7.93;;;2.30;;
8480;SDS011;4277;51.354;6.740;2024-03-23T12:25:58;6.70;;;2.47;;
8480;SDS011;4277;51.354;6.740;2024-03-23T12:28:24;8.13;;;2.70;;
8480;SDS011;4277;51.354;6.740;2024-03-23T12:30:53;7.87;;;2.40;;
8480;SDS011;4277;51.354;6.740;2024-03-23T12:33:19;4.10;;;2.10;;
8480;SDS011;4277;51.354;6.740;2024-03-23T12:35:45;5.03;;;2.20;;
8480;SDS011;4277;51.354;6.740;2024-03-23T12:38:11;5.17;;;2.00;;
8480;SDS011;4277;51.354;6.740;2024-03-23T12:40:37;3.33;;;1.83;;
8480;SDS011;4277;51.354;6.740;2024-03-23T12:43:03;4.93;;;2.20;;
8480;SDS011;4277;51.354;6.740;2024-03-23T12:45:29;4.27;;;1.70;;
8480;SDS011;4277;51.354;6.740;2024-03-23T12:47:55;6.87;;;1.27;;
8480;SDS011;4277;51.354;6.740;2024-03-23T12:50:21;2.73;;;1.10;;
8480;SDS011;4277;51.354;6.740;2024-03-23T12:52:47;1.17;;;0.70;;
8480;SDS011;4277;51.354;6.740;2024-03-23T12:55:13;2.73;;;1.23;;
8480;SDS011;4277;51.354;6.740;2024-03-23T12:57:39;2.50;;;1.10;;
8480;SDS011;4277;51.354;6.740;2024-03-23T13:00:06;2.00;;;1.00;;
8480;SDS011;4277;51.354;6.740;2024-03-23T13:02:34;1.80;;;0.93;;
8480;SDS011;4277;51.354;6.740;2024-03-23T13:05:00;2.77;;;1.00;;
8480;SDS011;4277;51.354;6.740;2024-03-23T13:07:26;3.37;;;1.27;;
8480;SDS011;4277;51.354;6.740;2024-03-23T13:09:52;3.83;;;1.73;;
8480;SDS011;4277;51.354;6.740;2024-03-23T13:12:19;3.13;;;2.03;;
8480;SDS011;4277;51.354;6.740;2024-03-23T13:14:45;4.27;;;1.73;;
8480;SDS011;4277;51.354;6.740;2024-03-23T13:17:11;4.47;;;1.50;;
8480;SDS011;4277;51.354;6.740;2024-03-23T13:19:37;4.13;;;1.33;;
8480;SDS011;4277;51.354;6.740;2024-03-23T13:22:03;5.73;;;1.30;;
8480;SDS011;4277;51.354;6.740;2024-03-23T13:24:30;6.20;;;1.57;;
8480;SDS011;4277;51.354;6.740;2024-03-23T13:26:56;6.40;;;1.53;;
8480;SDS011;4277;51.354;6.740;2024-03-23T13:41:00;5.23;;;1.70;;
8480;SDS011;4277;51.354;6.740;2024-03-23T13:43:26;3.17;;;1.00;;
8480;SDS011;4277;51.354;6.740;2024-03-23T13:45:53;1.60;;;0.93;;
8480;SDS011;4277;51.354;6.740;2024-03-23T13:48:19;4.93;;;1.00;;
8480;SDS011;4277;51.354;6.740;2024-03-23T13:50:46;3.63;;;0.77;;
8480;SDS011;4277;51.354;6.740;2024-03-23T13:53:15;1.63;;;0.87;;
8480;SDS011;4277;51.354;6.740;2024-03-23T13:55:46;2.40;;;0.97;;
8480;SDS011;4277;51.354;6.740;2024-03-23T13:58:13;2.83;;;1.10;;
8480;SDS011;4277;51.354;6.740;2024-03-23T14:00:39;7.30;;;1.00;;
8480;SDS011;4277;51.354;6.740;2024-03-23T14:03:05;3.03;;;1.17;;
8480;SDS011;4277;51.354;6.740;2024-03-23T14:05:31;2.23;;;0.80;;
8480;SDS011;4277;51.354;6.740;2024-03-23T14:07:57;2.67;;;0.93;;
8480;SDS011;4277;51.354;6.740;2024-03-23T14:10:23;3.17;;;1.07;;
8480;SDS011;4277;51.354;6.740;2024-03-23T14:12:49;2.87;;;1.10;;
8480;SDS011;4277;51.354;6.740;2024-03-23T14:15:14;3.30;;;1.20;;
8480;SDS011;4277;51.354;6.740;2024-03-23T14:17:40;4.10;;;1.60;;
8480;SDS011;4277;51.354;6.740;2024-03-23T14:20:06;5.03;;;1.40;;
8480;SDS011;4277;51.354;6.740;2024-03-23T14:22:36;3.03;;;1.20;;
8480;SDS011;4277;51.354;6.740;2024-03-23T14:25:02;3.13;;;1.20;;
8480;SDS011;4277;51.354;6.740;2024-03-23T14:27:28;4.90;;;1.33;;
8480;SDS011;4277;51.354;6.740;2024-03-23T14:29:54;2.37;;;1.30;;
8480;SDS011;4277;51.354;6.740;2024-03-23T14:32:21;3.97;;;1.30;;
8480;SDS011;4277;51.354;6.740;2024-03-23T14:34:47;2.73;;;1.30;;
8480;SDS011;4277;51.354;6.740;2024-03-23T14:37:13;4.20;;;1.30;;
8480;SDS011;4277;51.354;6.740;2024-03-23T14:39:40;3.30;;;1.33;;
8480;SDS011;4277;51.354;6.740;2024-03-23T14:42:06;3.67;;;1.40;;
8480;SDS011;4277;51.354;6.740;2024-03-23T14:44:35;2.37;;;1.40;;
8480;SDS011;4277;51.354;6.740;2024-03-23T14:47:01;4.47;;;1.40;;
8480;SDS011;4277;51.354;6.740;2024-03-23T14:49:27;2.43;;;1.50;;
8480;SDS011;4277;51.354;6.740;2024-03-23T14:51:53;1.80;;;1.27;;
8480;SDS011;4277;51.354;6.740;2024-03-23T14:54:19;3.53;;;1.60;;
8480;SDS011;4277;51.354;6.740;2024-03-23T14:56:45;4.17;;;1.30;;
8480;SDS011;4277;51.354;6.740;2024-03-23T14:59:12;3.90;;;1.80;;
8480;SDS011;4277;51.354;6.740;2024-03-23T15:01:38;2.23;;;1.27;;
8480;SDS011;4277;51.354;6.740;2024-03-23T15:04:04;3.90;;;1.10;;
8480;SDS011;4277;51.354;6.740;2024-03-23T15:06:30;2.60;;;1.30;;
8480;SDS011;4277;51.354;6.740;2024-03-23T15:08:56;4.03;;;1.77;;
8480;SDS011;4277;51.354;6.740;2024-03-23T15:11:22;3.03;;;1.50;;
8480;SDS011;4277;51.354;6.740;2024-03-23T15:13:49;5.20;;;1.50;;
8480;SDS011;4277;51.354;6.740;2024-03-23T15:16:19;5.00;;;1.50;;
8480;SDS011;4277;51.354;6.740;2024-03-23T15:18:45;3.40;;;1.10;;
8480;SDS011;4277;51.354;6.740;2024-03-23T15:21:11;2.57;;;1.00;;
8480;SDS011;4277;51.354;6.740;2024-03-23T15:23:39;4.03;;;1.40;;
8480;SDS011;4277;51.354;6.740;2024-03-23T15:26:07;2.73;;;1.40;;
8480;SDS011;4277;51.354;6.740;2024-03-23T15:28:33;4.00;;;1.20;;
8480;SDS011;4277;51.354;6.740;2024-03-23T15:31:17;3.37;;;1.17;;
8480;SDS011;4277;51.354;6.740;2024-03-23T15:33:43;2.50;;;1.17;;
8480;SDS011;4277;51.354;6.740;2024-03-23T15:36:09;5.13;;;1.30;;
8480;SDS011;4277;51.354;6.740;2024-03-23T15:38:35;4.70;;;1.13;;
8480;SDS011;4277;51.354;6.740;2024-03-23T15:41:03;2.27;;;1.20;;
8480;SDS011;4277;51.354;6.740;2024-03-23T15:43:29;2.67;;;1.23;;
8480;SDS011;4277;51.354;6.740;2024-03-23T15:46:00;2.73;;;1.20;;
8480;SDS011;4277;51.354;6.740;2024-03-23T15:48:27;2.63;;;1.10;;
8480;SDS011;4277;51.354;6.740;2024-03-23T15:50:54;3.37;;;1.20;;
8480;SDS011;4277;51.354;6.740;2024-03-23T15:53:20;5.13;;;1.30;;
8480;SDS011;4277;51.354;6.740;2024-03-23T15:55:56;2.90;;;1.20;;
8480;SDS011;4277;51.354;6.740;2024-03-23T15:58:22;4.63;;;1.47;;
8480;SDS011;4277;51.354;6.740;2024-03-23T16:00:55;2.40;;;1.30;;
8480;SDS011;4277;51.354;6.740;2024-03-23T16:03:21;2.60;;;0.93;;
8480;SDS011;4277;51.354;6.740;2024-03-23T16:05:53;1.43;;;1.00;;
8480;SDS011;4277;51.354;6.740;2024-03-23T16:08:20;1.77;;;0.83;;
8480;SDS011;4277;51.354;6.740;2024-03-23T16:10:46;4.10;;;1.03;;
8480;SDS011;4277;51.354;6.740;2024-03-23T16:13:12;3.50;;;1.10;;
8480;SDS011;4277;51.354;6.740;2024-03-23T16:15:38;2.27;;;0.97;;
8480;SDS011;4277;51.354;6.740;2024-03-23T16:18:04;1.90;;;0.87;;
8480;SDS011;4277;51.354;6.740;2024-03-23T16:20:30;2.03;;;0.80;;